createdAt,value
2022-11-08T00:00:31.034Z,100373.03
2022-11-08T00:05:49.272Z,100372.94
2022-11-08T00:11:07.675Z,100372.09
2022-11-08T00:16:10.031Z,100369.50
2022-11-08T00:21:10.845Z,100375.53
2022-11-08T00:26:11.646Z,100375.63
2022-11-08T00:31:13.785Z,100370.44
2022-11-08T00:36:14.568Z,100372.09
2022-11-08T00:41:15.337Z,100378.34
2022-11-08T00:46:17.580Z,100368.16
2022-11-08T00:51:18.369Z,100369.06
2022-11-08T00:56:19.241Z,100376.84
2022-11-08T01:01:22.676Z,100372.31
2022-11-08T01:06:25.329Z,100376.56
2022-11-08T01:11:27.098Z,100371.31
2022-11-08T01:16:31.676Z,100363.56
2022-11-08T01:21:32.614Z,100355.16
2022-11-08T01:26:33.411Z,100346.72
2022-11-08T01:31:35.604Z,100341.53
2022-11-08T01:36:36.451Z,100351.94
2022-11-08T01:41:37.225Z,100348.66
2022-11-08T01:46:48.020Z,100342.81
2022-11-08T01:51:56.510Z,100334.97
2022-11-08T01:56:58.799Z,100336.81
2022-11-08T02:02:01.189Z,100339.56
2022-11-08T02:07:03.700Z,100333.41
2022-11-08T02:12:05.228Z,100329.25
2022-11-08T02:17:09.638Z,100323.16
2022-11-08T02:22:30.188Z,100324.06
2022-11-08T02:27:32.332Z,100322.41
2022-11-08T02:32:39.215Z,100312.06
2022-11-08T02:37:40.054Z,100312.19
2022-11-08T02:42:42.240Z,100304.44
2022-11-08T02:47:42.999Z,100304.44
2022-11-08T02:52:43.779Z,100308.88
2022-11-08T02:57:45.888Z,100306.28
2022-11-08T03:02:52.049Z,100319.38
2022-11-08T03:07:53.003Z,100314.22
2022-11-08T03:12:57.506Z,100320.28
2022-11-08T03:17:59.914Z,100328.06
2022-11-08T03:23:01.783Z,100338.56
2022-11-08T03:28:04.756Z,100330.81
2022-11-08T03:33:05.628Z,100328.25
2022-11-08T03:38:06.385Z,100331.72
2022-11-08T03:43:08.590Z,100346.50
2022-11-08T03:48:09.529Z,100354.28
2022-11-08T03:53:10.327Z,100337.94
2022-11-08T03:58:12.729Z,100335.38
2022-11-08T04:03:13.531Z,100347.50
2022-11-08T04:08:14.345Z,100344.16
2022-11-08T04:13:34.100Z,100338.88
2022-11-08T04:18:52.219Z,100337.13
2022-11-08T04:23:53.536Z,100342.41
2022-11-08T04:28:55.670Z,100335.56
2022-11-08T04:33:56.468Z,100323.41
2022-11-08T04:38:57.320Z,100318.28
2022-11-08T04:43:59.787Z,100320.09
2022-11-08T04:49:01.623Z,100320.00
2022-11-08T04:54:06.245Z,100320.94
2022-11-08T04:59:11.888Z,100319.25
2022-11-08T05:04:13.120Z,100331.38
2022-11-08T05:09:13.891Z,100320.97
2022-11-08T05:14:16.044Z,100328.66
2022-11-08T05:19:37.082Z,100331.88
2022-11-08T05:24:37.904Z,100328.47
2022-11-08T05:29:42.312Z,100333.69
2022-11-08T05:34:43.197Z,100337.41
2022-11-08T05:39:44.027Z,100344.34
2022-11-08T05:44:46.189Z,100341.78
2022-11-08T05:49:47.081Z,100350.53
2022-11-08T05:54:47.864Z,100354.88
2022-11-08T05:59:50.100Z,100354.00
2022-11-08T06:04:51.065Z,100354.06
2022-11-08T06:09:52.336Z,100352.28
2022-11-08T06:14:54.448Z,100368.69
2022-11-08T06:19:55.205Z,100359.22
2022-11-08T06:24:56.003Z,100354.88
2022-11-08T06:29:58.108Z,100353.16
2022-11-08T06:34:58.923Z,100354.84
2022-11-08T06:39:59.919Z,100357.44
2022-11-08T06:45:02.032Z,100356.47
2022-11-08T06:50:02.825Z,100352.75
2022-11-08T06:55:03.851Z,100351.78
2022-11-08T07:00:07.237Z,100348.38
2022-11-08T07:05:08.337Z,100343.09
2022-11-08T07:10:10.048Z,100342.09
2022-11-08T07:15:12.504Z,100338.63
2022-11-08T07:20:13.983Z,100343.69
2022-11-08T07:25:14.826Z,100342.78
2022-11-08T07:30:17.094Z,100342.69
2022-11-08T07:35:17.966Z,100348.69
2022-11-08T07:40:19.011Z,100351.16
2022-11-08T07:45:21.176Z,100340.66
2022-11-08T07:50:22.257Z,100342.25
2022-11-08T07:55:23.318Z,100334.34
2022-11-08T08:00:25.603Z,100331.59
2022-11-08T08:05:27.283Z,100334.88
2022-11-08T08:10:28.994Z,100336.41
2022-11-08T08:15:31.348Z,100329.38
2022-11-08T08:20:32.916Z,100333.38
2022-11-08T08:25:33.916Z,100326.22
2022-11-08T08:30:36.827Z,100314.69
2022-11-08T08:35:38.070Z,100323.97
2022-11-08T08:40:39.058Z,100320.31
2022-11-08T08:45:41.921Z,100322.75
2022-11-08T08:50:43.206Z,100308.59
2022-11-08T08:55:44.064Z,100296.16
2022-11-08T09:06:09.869Z,100293.78
2022-11-08T09:11:10.729Z,100287.41
2022-11-08T09:16:14.278Z,100286.09
2022-11-08T09:21:15.262Z,100291.94
2022-11-08T09:26:16.322Z,100284.66
2022-11-08T09:31:18.461Z,100284.34
2022-11-08T09:36:19.262Z,100290.78
2022-11-08T09:41:40.358Z,100276.63
2022-11-08T09:46:51.003Z,100269.00
2022-11-08T09:51:52.538Z,100265.78
2022-11-08T09:56:55.471Z,100261.75
2022-11-08T10:01:57.874Z,100253.69
2022-11-08T10:07:16.439Z,100252.38
2022-11-08T10:12:26.315Z,100240.34
2022-11-08T10:17:45.013Z,100245.75
2022-11-08T10:22:55.679Z,100245.84
2022-11-08T10:28:00.960Z,100233.03
2022-11-08T10:33:03.881Z,100226.44
2022-11-08T10:38:14.717Z,100217.28
2022-11-08T10:43:20.886Z,100206.22
2022-11-08T10:48:23.297Z,100198.66
2022-11-08T10:53:27.940Z,100192.56
2022-11-08T10:58:37.856Z,100184.66
2022-11-08T11:03:40.115Z,100183.75
2022-11-08T11:08:50.288Z,100177.03
2022-11-08T11:14:06.803Z,100154.56
2022-11-08T11:19:16.111Z,100146.97
2022-11-08T11:24:20.742Z,100143.97
2022-11-08T11:29:25.030Z,100145.88
2022-11-08T11:34:44.779Z,100151.72
2022-11-08T11:39:53.057Z,100133.88
2022-11-08T11:45:07.591Z,100138.16
2022-11-08T11:50:33.130Z,100135.81
2022-11-08T11:55:51.781Z,100124.38
2022-11-08T12:00:58.841Z,100128.00
2022-11-08T12:06:22.351Z,100119.97
2022-11-08T12:11:44.276Z,100121.81
2022-11-08T12:16:57.130Z,100116.75
2022-11-08T12:22:13.217Z,100106.81
2022-11-08T12:27:22.556Z,100105.31
2022-11-08T12:32:40.774Z,100102.13
2022-11-08T12:37:55.135Z,100095.94
2022-11-08T12:43:11.842Z,100088.91
2022-11-08T12:48:22.370Z,100098.16
2022-11-08T12:53:39.383Z,100104.03
2022-11-08T12:58:44.019Z,100101.06
2022-11-08T13:04:20.042Z,100101.75
2022-11-08T13:09:31.513Z,100095.09
2022-11-08T13:14:38.576Z,100091.09
2022-11-08T13:20:00.781Z,100086.16
2022-11-08T13:25:26.260Z,100075.38
2022-11-08T13:30:43.077Z,100082.09
2022-11-08T13:35:52.042Z,100075.59
2022-11-08T13:41:18.579Z,100083.22
2022-11-08T13:46:50.459Z,100074.66
2022-11-08T13:51:52.517Z,100064.69
2022-11-08T13:56:55.904Z,100062.50
2022-11-08T14:02:01.268Z,100069.47
2022-11-08T14:07:07.967Z,100065.50
2022-11-08T14:12:17.001Z,100066.63
2022-11-08T14:17:28.058Z,100062.69
2022-11-08T14:22:31.216Z,100053.34
2022-11-08T14:27:39.088Z,100049.66
2022-11-08T14:32:39.907Z,100048.81
2022-11-08T14:37:43.994Z,100052.91
2022-11-08T14:42:46.589Z,100053.22
2022-11-08T14:47:48.075Z,100060.38
2022-11-08T14:52:49.273Z,100068.09
2022-11-08T14:57:52.064Z,100062.72
2022-11-08T15:02:56.259Z,100056.44
2022-11-08T15:07:58.112Z,100068.34
2022-11-08T15:13:00.515Z,100062.69
2022-11-08T15:18:15.019Z,100078.94
2022-11-08T15:23:28.270Z,100070.72
2022-11-08T15:28:35.241Z,100069.81
2022-11-08T15:33:39.029Z,100070.50
2022-11-08T15:38:41.692Z,100076.84
2022-11-08T15:43:43.860Z,100064.00
2022-11-08T15:48:56.076Z,100082.78
2022-11-08T15:53:57.065Z,100076.47
2022-11-08T15:58:59.352Z,100059.06
2022-11-08T16:04:00.198Z,100053.53
2022-11-08T16:09:00.997Z,100054.72
2022-11-08T16:14:03.199Z,100062.63
2022-11-08T16:19:04.387Z,100061.09
2022-11-08T16:24:05.355Z,100051.63
2022-11-08T16:29:08.722Z,100055.06
2022-11-08T16:34:11.867Z,100048.31
2022-11-08T16:39:16.489Z,100049.44
2022-11-08T16:44:19.154Z,100042.41
2022-11-08T16:49:23.006Z,100047.66
2022-11-08T16:54:28.351Z,100038.72
2022-11-08T16:59:30.737Z,100047.22
2022-11-08T17:04:31.981Z,100044.28
2022-11-08T17:09:32.789Z,100041.81
2022-11-08T17:14:34.935Z,100036.59
2022-11-08T17:19:35.840Z,100038.34
2022-11-08T17:24:36.652Z,100044.47
2022-11-08T17:29:38.774Z,100033.44
2022-11-08T17:34:39.910Z,100039.66
2022-11-08T17:39:40.695Z,100045.25
2022-11-08T17:44:42.829Z,100047.31
2022-11-08T17:49:44.251Z,100040.44
2022-11-08T17:54:48.982Z,100041.44
2022-11-08T17:59:54.011Z,100054.59
2022-11-08T18:04:55.992Z,100060.66
2022-11-08T18:09:56.807Z,100054.47
2022-11-08T18:14:59.067Z,100048.19
2022-11-08T18:19:59.909Z,100047.28
2022-11-08T18:25:00.755Z,100045.44
2022-11-08T18:30:03.155Z,100046.50
2022-11-08T18:35:04.022Z,100051.28
2022-11-08T18:40:05.637Z,100050.91
2022-11-08T18:45:09.114Z,100045.72
2022-11-08T18:50:10.622Z,100041.72
2022-11-08T18:55:12.059Z,100040.84
2022-11-08T19:00:14.852Z,100048.09
2022-11-08T19:05:15.749Z,100035.09
2022-11-08T19:10:16.605Z,100033.28
2022-11-08T19:15:19.763Z,100028.72
2022-11-08T19:20:20.693Z,100020.75
2022-11-08T19:25:21.564Z,100031.44
2022-11-08T19:30:23.728Z,100020.84
2022-11-08T19:35:24.547Z,100033.03
2022-11-08T19:40:30.831Z,100027.81
2022-11-08T19:45:34.232Z,100045.22
2022-11-08T19:50:35.065Z,100046.06
2022-11-08T19:55:36.093Z,100046.09
2022-11-08T20:00:39.353Z,100050.59
2022-11-08T20:05:40.239Z,100043.72
2022-11-08T20:10:41.071Z,100041.97
2022-11-08T20:15:43.287Z,100034.91
2022-11-08T20:20:44.675Z,100045.22
2022-11-08T20:25:45.481Z,100049.59
2022-11-08T20:30:47.793Z,100043.53
2022-11-08T20:35:48.622Z,100039.31
2022-11-08T20:40:49.460Z,100045.38
2022-11-08T20:45:51.666Z,100048.19
2022-11-08T20:50:52.481Z,100047.47
2022-11-08T20:56:00.544Z,100055.47
2022-11-08T21:01:04.624Z,100063.50
2022-11-08T21:06:07.330Z,100059.03
2022-11-08T21:11:09.785Z,100060.69
2022-11-08T21:16:29.332Z,100041.56
2022-11-08T21:21:31.146Z,100045.97
2022-11-08T21:26:36.196Z,100050.44
2022-11-08T21:31:38.692Z,100051.25
2022-11-08T21:36:39.690Z,100036.13
2022-11-08T21:41:40.765Z,100044.56
2022-11-08T21:46:42.985Z,100032.38
2022-11-08T21:51:43.800Z,100042.50
2022-11-08T21:56:44.538Z,100040.00
2022-11-08T22:01:46.612Z,100039.06
2022-11-08T22:06:47.936Z,100035.59
2022-11-08T22:11:48.910Z,100038.41
2022-11-08T22:16:51.050Z,100035.03
2022-11-08T22:21:51.914Z,100027.91
2022-11-08T22:26:53.368Z,100023.50
2022-11-08T22:31:55.906Z,100034.19
2022-11-08T22:36:56.660Z,100027.75
2022-11-08T22:41:57.427Z,100026.31
2022-11-08T22:46:59.512Z,100021.03
2022-11-08T22:52:00.293Z,100033.78
2022-11-08T22:57:01.064Z,100027.81
2022-11-08T23:02:03.371Z,100030.53
2022-11-08T23:07:04.204Z,100029.69
2022-11-08T23:12:22.605Z,100026.97
2022-11-08T23:17:24.708Z,100019.09
2022-11-08T23:22:43.145Z,100031.31
2022-11-08T23:28:01.185Z,100026.72
2022-11-08T23:33:05.707Z,100019.09
2022-11-08T23:38:06.525Z,100019.38
2022-11-08T23:43:27.605Z,100028.31
2022-11-08T23:48:29.727Z,100020.63
2022-11-08T23:53:30.578Z,100015.53
2022-11-08T23:58:31.378Z,100011.34
